createdAt,value
2022-08-08T00:00:54.226Z,99.99
2022-08-08T00:01:08.487Z,99.99
2022-08-08T00:02:30.093Z,99.99
2022-08-08T00:02:59.678Z,99.99
2022-08-08T00:03:59.717Z,99.99
2022-08-08T00:04:59.733Z,99.99
2022-08-08T00:06:02.866Z,99.99
2022-08-08T00:06:59.651Z,99.99
2022-08-08T00:07:59.646Z,99.99
2022-08-08T00:08:59.638Z,99.99
2022-08-08T00:09:59.634Z,99.99
2022-08-08T00:10:59.636Z,99.99
2022-08-08T00:12:09.890Z,99.99
2022-08-08T00:12:59.617Z,99.99
2022-08-08T00:14:16.498Z,99.99
2022-08-08T00:15:03.222Z,99.99
2022-08-08T00:15:59.594Z,99.99
2022-08-08T00:16:59.585Z,99.99
2022-08-08T00:18:03.361Z,99.99
2022-08-08T00:18:59.569Z,99.99
2022-08-08T00:19:59.571Z,99.99
2022-08-08T00:21:00.815Z,99.99
2022-08-08T00:21:59.556Z,99.99
2022-08-08T00:22:59.545Z,99.99
2022-08-08T00:23:59.546Z,99.99
2022-08-08T00:24:59.531Z,99.99
2022-08-08T00:25:59.527Z,99.99
2022-08-08T00:26:59.517Z,99.99
2022-08-08T00:27:59.515Z,99.99
2022-08-08T00:28:59.509Z,99.99
2022-08-08T00:29:59.501Z,99.99
2022-08-08T00:31:00.615Z,99.99
2022-08-08T00:32:15.459Z,99.99
2022-08-08T00:32:59.478Z,99.99
2022-08-08T00:34:18.234Z,99.99
2022-08-08T00:34:59.464Z,99.99
2022-08-08T00:35:59.459Z,99.99
2022-08-08T00:37:03.419Z,99.99
2022-08-08T00:38:01.603Z,99.99
2022-08-08T00:38:59.460Z,99.99
2022-08-08T00:41:11.218Z,99.99
2022-08-08T00:41:11.271Z,99.99
2022-08-08T00:42:08.889Z,99.99
2022-08-08T00:43:11.967Z,99.99
2022-08-08T00:44:00.989Z,99.99
2022-08-08T00:44:59.400Z,99.99
2022-08-08T00:45:59.391Z,99.99
2022-08-08T00:46:59.385Z,99.99
2022-08-08T00:48:05.049Z,99.99
2022-08-08T00:49:01.309Z,99.99
2022-08-08T00:49:59.714Z,99.99
2022-08-08T00:50:59.357Z,99.99
2022-08-08T00:51:59.351Z,99.99
2022-08-08T00:52:59.344Z,99.99
2022-08-08T00:54:04.647Z,99.99
2022-08-08T00:54:59.332Z,99.99
2022-08-08T00:55:59.352Z,99.99
2022-08-08T00:56:59.318Z,99.99
2022-08-08T00:57:59.310Z,99.99
2022-08-08T00:58:59.302Z,99.99
2022-08-08T00:59:59.295Z,99.99
2022-08-08T01:00:59.334Z,99.99
2022-08-08T01:02:01.335Z,99.99
2022-08-08T01:03:54.034Z,99.99
2022-08-08T01:04:04.721Z,99.99
2022-08-08T01:04:59.264Z,99.99
2022-08-08T01:06:00.960Z,99.99
2022-08-08T01:07:01.750Z,99.99
2022-08-08T01:07:59.239Z,99.99
2022-08-08T01:08:59.235Z,99.99
2022-08-08T01:09:59.233Z,99.99
2022-08-08T01:10:59.219Z,99.99
2022-08-08T01:11:59.211Z,99.99
2022-08-08T01:12:59.221Z,99.99
2022-08-08T01:13:59.199Z,99.99
2022-08-08T01:15:00.468Z,99.99
2022-08-08T01:15:59.183Z,99.99
2022-08-08T01:16:59.179Z,99.99
2022-08-08T01:18:02.163Z,99.99
2022-08-08T01:18:59.164Z,99.99
2022-08-08T01:20:03.253Z,99.99
2022-08-08T01:20:59.151Z,99.99
2022-08-08T01:22:12.514Z,99.99
2022-08-08T01:22:59.135Z,99.99
2022-08-08T01:24:05.433Z,99.99
2022-08-08T01:24:59.171Z,99.99
2022-08-08T01:25:59.113Z,99.99
2022-08-08T01:26:59.106Z,99.99
2022-08-08T01:28:00.123Z,99.99
2022-08-08T01:28:59.206Z,99.99
2022-08-08T01:30:01.798Z,99.99
2022-08-08T01:30:59.082Z,99.99
2022-08-08T01:32:15.879Z,99.99
2022-08-08T01:32:59.113Z,99.99
2022-08-08T01:34:01.138Z,99.99
2022-08-08T01:34:59.053Z,99.99
2022-08-08T01:36:01.131Z,99.99
2022-08-08T01:36:59.037Z,99.99
2022-08-08T01:37:59.323Z,99.99
2022-08-08T01:38:59.023Z,99.99
2022-08-08T01:39:59.052Z,99.99
2022-08-08T01:40:59.007Z,99.99
2022-08-08T01:41:58.999Z,99.99
2022-08-08T01:42:58.992Z,99.99
2022-08-08T01:43:58.983Z,99.99
2022-08-08T01:44:58.978Z,99.99
2022-08-08T01:45:58.969Z,99.99
2022-08-08T01:46:58.963Z,99.99
2022-08-08T01:48:14.445Z,99.99
2022-08-08T01:48:58.949Z,99.99
2022-08-08T01:49:58.956Z,99.99
2022-08-08T01:50:58.935Z,99.99
2022-08-08T01:52:42.636Z,99.99
2022-08-08T01:54:57.608Z,99.99
2022-08-08T01:55:15.672Z,99.99
2022-08-08T01:55:26.699Z,99.99
2022-08-08T01:56:28.709Z,99.99
2022-08-08T01:56:58.894Z,99.99
2022-08-08T01:58:11.034Z,99.99
2022-08-08T01:58:58.875Z,99.99
2022-08-08T02:00:03.001Z,99.99
2022-08-08T02:00:58.883Z,99.99
2022-08-08T02:02:02.890Z,99.99
2022-08-08T02:02:58.847Z,99.99
2022-08-08T02:03:58.842Z,99.99
2022-08-08T02:04:58.832Z,99.99
2022-08-08T02:05:59.376Z,99.99
2022-08-08T02:06:58.818Z,99.99
2022-08-08T02:07:58.811Z,99.99
2022-08-08T02:08:58.803Z,99.99
2022-08-08T02:10:03.364Z,99.99
2022-08-08T02:10:58.788Z,99.99
2022-08-08T02:12:00.826Z,99.99
2022-08-08T02:12:58.774Z,99.99
2022-08-08T02:13:58.764Z,99.99
2022-08-08T02:14:59.548Z,99.99
2022-08-08T02:15:58.750Z,99.99
2022-08-08T02:16:58.777Z,99.99
2022-08-08T02:17:58.735Z,99.99
2022-08-08T02:18:59.481Z,99.99
2022-08-08T02:20:09.831Z,99.99
2022-08-08T02:21:00.891Z,99.99
2022-08-08T02:21:58.705Z,99.99
2022-08-08T02:22:58.699Z,99.99
2022-08-08T02:23:58.691Z,99.99
2022-08-08T02:24:58.691Z,99.99
2022-08-08T02:25:58.953Z,99.99
2022-08-08T02:27:01.102Z,99.99
2022-08-08T02:27:58.659Z,99.99
2022-08-08T02:28:58.653Z,99.99
2022-08-08T02:29:58.645Z,99.99
2022-08-08T02:31:02.101Z,99.99
2022-08-08T02:32:04.640Z,99.99
2022-08-08T02:32:58.624Z,99.99
2022-08-08T02:34:08.080Z,99.99
2022-08-08T02:35:10.509Z,99.99
2022-08-08T02:36:04.740Z,99.99
2022-08-08T02:36:58.594Z,99.99
2022-08-08T02:37:58.622Z,99.99
2022-08-08T02:39:00.889Z,99.99
2022-08-08T02:40:00.191Z,99.99
2022-08-08T02:40:58.563Z,99.99
2022-08-08T02:42:05.944Z,99.99
2022-08-08T02:43:00.563Z,99.99
2022-08-08T02:44:37.408Z,99.99
2022-08-08T02:44:58.756Z,99.99
2022-08-08T02:45:58.525Z,99.99
2022-08-08T02:46:58.517Z,99.99
2022-08-08T02:47:58.608Z,99.99
2022-08-08T02:48:58.502Z,99.99
2022-08-08T02:49:58.492Z,99.99
2022-08-08T02:50:58.487Z,99.99
2022-08-08T02:51:59.772Z,99.99
2022-08-08T02:52:58.470Z,99.99
2022-08-08T02:53:58.462Z,99.99
2022-08-08T02:54:58.456Z,99.99
2022-08-08T02:55:59.965Z,99.99
2022-08-08T02:56:58.440Z,99.99
2022-08-08T02:57:58.431Z,99.99
2022-08-08T02:58:58.427Z,99.99
2022-08-08T03:00:27.212Z,99.99
2022-08-08T03:00:58.483Z,99.99
2022-08-08T03:01:58.476Z,99.99
2022-08-08T03:02:58.393Z,99.99
2022-08-08T03:05:04.943Z,99.99
2022-08-08T03:05:04.944Z,99.99
2022-08-08T03:05:58.370Z,99.99
2022-08-08T03:06:58.364Z,99.99
2022-08-08T03:07:59.339Z,99.99
2022-08-08T03:08:58.349Z,99.99
2022-08-08T03:09:58.339Z,99.99
2022-08-08T03:10:58.333Z,99.99
2022-08-08T03:12:02.706Z,99.99
2022-08-08T03:13:02.668Z,99.99
2022-08-08T03:15:57.613Z,99.99
2022-08-08T03:16:00.052Z,99.99
2022-08-08T03:16:05.547Z,99.99
2022-08-08T03:16:58.286Z,99.99
2022-08-08T03:18:04.949Z,99.99
2022-08-08T03:18:58.270Z,99.99
2022-08-08T03:19:58.260Z,99.99
2022-08-08T03:20:58.255Z,99.99
2022-08-08T03:21:59.892Z,99.99
2022-08-08T03:23:00.554Z,99.99
2022-08-08T03:24:01.875Z,99.99
2022-08-08T03:24:58.225Z,99.99
2022-08-08T03:25:58.215Z,99.99
2022-08-08T03:26:58.208Z,99.99
2022-08-08T03:27:58.199Z,99.99
2022-08-08T03:28:58.195Z,99.99
2022-08-08T03:29:58.183Z,99.99
2022-08-08T03:31:22.214Z,99.99
2022-08-08T03:32:06.377Z,99.99
2022-08-08T03:33:07.652Z,99.99
2022-08-08T03:34:00.862Z,99.99
2022-08-08T03:34:58.144Z,99.99
2022-08-08T03:35:58.135Z,99.99
2022-08-08T03:36:58.130Z,99.99
2022-08-08T03:38:54.564Z,99.99
2022-08-08T03:39:14.290Z,99.99
2022-08-08T03:40:00.474Z,99.99
2022-08-08T03:40:58.159Z,99.99
2022-08-08T03:42:26.541Z,99.99
2022-08-08T03:42:58.082Z,99.99
2022-08-08T03:43:59.538Z,99.99
2022-08-08T03:44:58.072Z,99.99
2022-08-08T03:46:05.322Z,99.99
2022-08-08T03:46:58.050Z,99.99
2022-08-08T03:47:58.041Z,99.99
2022-08-08T03:49:56.521Z,99.99
2022-08-08T03:50:02.251Z,99.99
2022-08-08T03:50:58.021Z,99.99
2022-08-08T03:51:58.008Z,99.99
2022-08-08T03:52:58.475Z,99.99
2022-08-08T03:53:57.992Z,99.99
2022-08-08T03:55:10.428Z,99.99
2022-08-08T03:56:04.749Z,99.99
2022-08-08T03:56:57.970Z,99.99
2022-08-08T03:58:29.880Z,99.99
2022-08-08T03:58:57.952Z,99.99
2022-08-08T04:00:11.432Z,99.99
2022-08-08T04:01:02.048Z,99.99
2022-08-08T04:02:12.359Z,99.99
2022-08-08T04:02:58.361Z,99.99
2022-08-08T04:04:01.848Z,99.99
2022-08-08T04:04:57.905Z,99.99
2022-08-08T04:05:57.895Z,99.99
2022-08-08T04:06:57.889Z,99.99
2022-08-08T04:07:58.197Z,99.99
2022-08-08T04:08:57.876Z,99.99
2022-08-08T04:10:02.941Z,99.99
2022-08-08T04:11:00.012Z,99.99
2022-08-08T04:12:00.398Z,99.99
2022-08-08T04:12:57.839Z,99.99
2022-08-08T04:14:03.896Z,99.99
2022-08-08T04:14:57.822Z,99.99
2022-08-08T04:16:04.044Z,99.99
2022-08-08T04:16:57.808Z,99.99
2022-08-08T04:17:59.446Z,99.99
2022-08-08T04:18:57.791Z,99.99
2022-08-08T04:19:57.780Z,99.99
2022-08-08T04:20:57.774Z,99.99
2022-08-08T04:21:58.204Z,99.99
2022-08-08T04:22:58.339Z,99.99
2022-08-08T04:24:11.786Z,99.99
2022-08-08T04:24:57.744Z,99.99
2022-08-08T04:25:57.732Z,99.99
2022-08-08T04:26:58.712Z,99.99
2022-08-08T04:28:02.194Z,99.99
2022-08-08T04:28:57.807Z,99.99
2022-08-08T04:30:17.033Z,99.99
2022-08-08T04:30:57.794Z,99.99
2022-08-08T04:32:00.187Z,99.99
2022-08-08T04:32:57.676Z,99.99
2022-08-08T04:33:57.667Z,99.99
2022-08-08T04:34:58.504Z,99.99
2022-08-08T04:35:57.649Z,99.99
2022-08-08T04:36:57.645Z,99.99
2022-08-08T04:37:57.633Z,99.99
2022-08-08T04:39:47.629Z,99.99
2022-08-08T04:40:05.197Z,99.99
2022-08-08T04:40:57.670Z,99.99
2022-08-08T04:41:57.600Z,99.99
2022-08-08T04:43:00.910Z,99.99
2022-08-08T04:43:57.636Z,99.99
2022-08-08T04:44:57.579Z,99.99
2022-08-08T04:45:57.567Z,99.99
2022-08-08T04:46:58.008Z,99.99
2022-08-08T04:47:57.551Z,99.99
2022-08-08T04:48:57.546Z,99.99
2022-08-08T04:50:00.471Z,99.99
2022-08-08T04:50:57.529Z,99.99
2022-08-08T04:51:57.869Z,99.99
2022-08-08T04:53:00.725Z,99.99
2022-08-08T04:54:39.462Z,99.99
2022-08-08T04:54:57.496Z,99.99
2022-08-08T04:55:57.488Z,99.83
2022-08-08T04:56:57.481Z,98.05
2022-08-08T04:57:59.179Z,95.31
2022-08-08T04:58:57.465Z,94.20
2022-08-08T04:59:59.541Z,92.90
2022-08-08T05:00:57.453Z,90.34
2022-08-08T05:02:00.683Z,88.55
2022-08-08T05:02:57.440Z,87.92
2022-08-08T05:04:09.077Z,86.42
2022-08-08T05:04:59.411Z,85.36
2022-08-08T05:05:57.433Z,84.43
2022-08-08T05:06:57.423Z,83.47
2022-08-08T05:07:57.418Z,82.93
2022-08-08T05:09:02.268Z,81.96
2022-08-08T05:09:57.411Z,80.74
2022-08-08T05:10:57.404Z,80.26
2022-08-08T05:11:57.532Z,79.24
2022-08-08T05:13:01.924Z,78.66
2022-08-08T05:14:01.465Z,77.78
2022-08-08T05:14:57.390Z,77.14
2022-08-08T05:16:52.195Z,77.14
2022-08-08T05:17:00.984Z,76.76
2022-08-08T05:17:57.380Z,76.56
2022-08-08T05:18:57.423Z,76.46
2022-08-08T05:20:12.037Z,76.86
2022-08-08T05:20:57.364Z,76.24
2022-08-08T05:21:59.458Z,76.91
2022-08-08T05:22:57.361Z,77.45
2022-08-08T05:23:59.210Z,78.33
2022-08-08T05:24:57.349Z,79.06
2022-08-08T05:26:00.157Z,79.54
2022-08-08T05:26:57.340Z,79.89
2022-08-08T05:27:57.337Z,80.76
2022-08-08T05:29:04.807Z,80.57
2022-08-08T05:29:57.331Z,81.53
2022-08-08T05:30:57.322Z,80.95
2022-08-08T05:32:02.994Z,81.53
2022-08-08T05:32:57.317Z,81.24
2022-08-08T05:33:57.311Z,82.11
2022-08-08T05:34:57.307Z,82.40
2022-08-08T05:35:57.304Z,82.02
2022-08-08T05:36:57.297Z,81.92
2022-08-08T05:37:58.678Z,81.82
2022-08-08T05:38:57.285Z,82.11
2022-08-08T05:39:57.340Z,82.50
2022-08-08T05:40:58.279Z,82.50
2022-08-08T05:41:57.275Z,82.79
2022-08-08T05:42:57.269Z,82.79
2022-08-08T05:44:04.092Z,81.92
2022-08-08T05:44:57.363Z,82.21
2022-08-08T05:46:03.509Z,82.79
2022-08-08T05:47:02.874Z,82.31
2022-08-08T05:48:00.579Z,82.11
2022-08-08T05:48:57.243Z,82.21
2022-08-08T05:49:57.239Z,82.11
2022-08-08T05:50:59.004Z,82.02
2022-08-08T05:51:57.231Z,83.18
2022-08-08T05:52:57.226Z,83.33
2022-08-08T05:54:27.740Z,83.23
2022-08-08T05:55:03.297Z,84.20
2022-08-08T05:56:11.287Z,84.48
2022-08-08T05:56:57.208Z,84.00
2022-08-08T05:58:05.793Z,83.72
2022-08-08T05:59:03.561Z,83.81
2022-08-08T06:00:22.968Z,83.81
2022-08-08T06:00:57.204Z,84.10
2022-08-08T06:01:58.124Z,84.39
2022-08-08T06:02:57.216Z,83.81
2022-08-08T06:03:57.235Z,84.30
2022-08-08T06:04:57.174Z,84.00
2022-08-08T06:05:58.967Z,84.10
2022-08-08T06:07:00.645Z,83.91
2022-08-08T06:08:02.353Z,83.72
2022-08-08T06:09:00.451Z,84.00
2022-08-08T06:10:01.312Z,83.81
2022-08-08T06:10:57.147Z,83.42
2022-08-08T06:11:57.146Z,83.42
2022-08-08T06:12:57.140Z,83.66
2022-08-08T06:13:57.136Z,83.42
2022-08-08T06:14:57.891Z,82.02
2022-08-08T06:15:57.129Z,82.31
2022-08-08T06:16:57.126Z,80.28
2022-08-08T06:18:20.725Z,79.95
2022-08-08T06:18:57.568Z,81.15
2022-08-08T06:19:57.113Z,81.53
2022-08-08T06:20:57.618Z,81.73
2022-08-08T06:21:57.905Z,80.95
2022-08-08T06:22:57.976Z,80.86
2022-08-08T06:24:05.285Z,81.53
2022-08-08T06:24:57.090Z,81.63
2022-08-08T06:26:38.169Z,80.95
2022-08-08T06:26:57.082Z,79.50
2022-08-08T06:27:57.082Z,79.02
2022-08-08T06:28:57.075Z,79.89
2022-08-08T06:30:00.794Z,79.50
2022-08-08T06:30:57.067Z,79.41
2022-08-08T06:32:11.369Z,79.41
2022-08-08T06:32:57.059Z,78.64
2022-08-08T06:34:27.056Z,77.96
2022-08-08T06:36:03.798Z,78.54
2022-08-08T06:36:07.781Z,78.83
2022-08-08T06:36:57.042Z,78.06
2022-08-08T06:37:57.628Z,78.83
2022-08-08T06:38:57.137Z,78.54
2022-08-08T06:39:57.149Z,78.34
2022-08-08T06:40:57.028Z,78.06
2022-08-08T06:41:57.026Z,77.86
2022-08-08T06:42:57.022Z,77.86
2022-08-08T06:43:57.634Z,77.86
2022-08-08T06:44:57.215Z,78.15
2022-08-08T06:45:57.012Z,78.15
2022-08-08T06:46:57.006Z,77.76
2022-08-08T06:48:01.021Z,76.80
2022-08-08T06:48:56.998Z,76.61
2022-08-08T06:49:57.286Z,76.70
2022-08-08T06:50:56.990Z,77.25
2022-08-08T06:51:58.042Z,77.44
2022-08-08T06:52:56.983Z,77.83
2022-08-08T06:53:56.982Z,78.11
2022-08-08T06:54:56.975Z,78.21
2022-08-08T06:56:02.697Z,77.63
2022-08-08T06:56:56.975Z,77.63
2022-08-08T06:57:59.464Z,77.92
2022-08-08T06:58:56.960Z,78.02
2022-08-08T07:00:10.158Z,78.21
2022-08-08T07:00:56.950Z,77.78
2022-08-08T07:02:18.200Z,77.69
2022-08-08T07:02:57.027Z,77.88
2022-08-08T07:04:37.929Z,78.31
2022-08-08T07:04:58.650Z,77.92
2022-08-08T07:06:02.143Z,77.83
2022-08-08T07:06:56.929Z,77.92
2022-08-08T07:07:56.928Z,78.31
2022-08-08T07:08:56.918Z,78.21
2022-08-08T07:10:00.255Z,78.99
2022-08-08T07:10:56.908Z,78.31
2022-08-08T07:11:56.907Z,77.34
2022-08-08T07:12:56.901Z,77.83
2022-08-08T07:14:00.681Z,77.63
2022-08-08T07:14:57.960Z,76.86
2022-08-08T07:16:06.203Z,76.86
2022-08-08T07:16:56.883Z,76.76
2022-08-08T07:18:34.556Z,76.76
2022-08-08T07:18:57.635Z,76.67
2022-08-08T07:19:59.848Z,75.93
2022-08-08T07:20:56.867Z,76.18
2022-08-08T07:22:02.043Z,76.28
2022-08-08T07:22:56.859Z,76.57
2022-08-08T07:24:01.768Z,76.37
2022-08-08T07:24:56.850Z,76.28
2022-08-08T07:25:56.848Z,75.74
2022-08-08T07:26:57.709Z,75.84
2022-08-08T07:28:01.892Z,75.31
2022-08-08T07:28:56.851Z,75.12
2022-08-08T07:30:00.999Z,75.93
2022-08-08T07:30:56.828Z,75.26
2022-08-08T07:31:56.823Z,74.48
2022-08-08T07:32:59.382Z,74.38
2022-08-08T07:33:59.683Z,74.10
2022-08-08T07:35:00.223Z,74.58
2022-08-08T07:35:56.807Z,74.29
2022-08-08T07:36:56.800Z,74.19
2022-08-08T07:38:09.712Z,73.80
2022-08-08T07:38:56.792Z,73.80
2022-08-08T07:39:59.764Z,74.48
2022-08-08T07:40:56.785Z,74.29
2022-08-08T07:41:58.827Z,74.10
2022-08-08T07:42:56.777Z,72.94
2022-08-08T07:43:56.773Z,72.94
2022-08-08T07:44:56.766Z,72.94
2022-08-08T07:46:17.435Z,72.94
2022-08-08T07:46:56.759Z,73.13
2022-08-08T07:47:56.756Z,73.52
2022-08-08T07:48:56.752Z,73.36
2022-08-08T07:49:57.549Z,72.97
2022-08-08T07:50:56.741Z,72.49
2022-08-08T07:51:56.741Z,73.07
2022-08-08T07:52:56.734Z,72.30
2022-08-08T07:54:02.586Z,72.20
2022-08-08T07:54:56.725Z,72.68
2022-08-08T07:55:56.724Z,72.00
2022-08-08T07:56:56.719Z,72.58
2022-08-08T07:57:56.716Z,72.30
2022-08-08T07:58:56.711Z,73.16
2022-08-08T07:59:56.709Z,72.88
2022-08-08T08:00:56.744Z,73.46
2022-08-08T08:02:35.397Z,72.68
2022-08-08T08:02:56.696Z,72.20
2022-08-08T08:03:57.781Z,72.00
2022-08-08T08:04:56.905Z,71.81
2022-08-08T08:05:56.689Z,72.04
2022-08-08T08:06:56.679Z,71.56
2022-08-08T08:07:56.678Z,71.66
2022-08-08T08:08:56.674Z,71.26
2022-08-08T08:09:56.740Z,72.52
2022-08-08T08:10:56.664Z,71.46
2022-08-08T08:11:56.695Z,71.84
2022-08-08T08:12:56.657Z,72.52
2022-08-08T08:14:08.150Z,71.36
2022-08-08T08:14:56.648Z,70.40
2022-08-08T08:15:56.646Z,70.30
2022-08-08T08:16:56.641Z,71.08
2022-08-08T08:17:56.993Z,71.36
2022-08-08T08:18:56.793Z,69.92
2022-08-08T08:19:56.630Z,70.01
2022-08-08T08:20:56.626Z,69.62
2022-08-08T08:21:58.240Z,69.62
2022-08-08T08:22:56.622Z,71.17
2022-08-08T08:24:02.678Z,70.50
2022-08-08T08:24:56.611Z,71.08
2022-08-08T08:26:00.031Z,71.08
2022-08-08T08:26:56.603Z,70.40
2022-08-08T08:27:56.602Z,70.30
2022-08-08T08:28:56.612Z,70.78
2022-08-08T08:29:57.396Z,70.78
2022-08-08T08:30:56.596Z,70.14
2022-08-08T08:31:58.199Z,70.30
2022-08-08T08:32:56.583Z,71.11
2022-08-08T08:33:56.581Z,70.72
2022-08-08T08:34:56.574Z,70.14
2022-08-08T08:36:19.763Z,69.85
2022-08-08T08:36:56.567Z,70.24
2022-08-08T08:38:16.015Z,71.01
2022-08-08T08:38:56.559Z,71.20
2022-08-08T08:40:02.063Z,71.30
2022-08-08T08:40:56.555Z,70.53
2022-08-08T08:41:56.553Z,70.82
2022-08-08T08:42:56.547Z,70.72
2022-08-08T08:44:13.549Z,70.04
2022-08-08T08:44:56.542Z,68.98
2022-08-08T08:45:57.183Z,69.01
2022-08-08T08:46:58.804Z,68.63
2022-08-08T08:47:58.398Z,69.01
2022-08-08T08:48:56.530Z,68.49
2022-08-08T08:49:56.528Z,68.82
2022-08-08T08:50:56.521Z,68.69
2022-08-08T08:51:56.522Z,68.73
2022-08-08T08:52:59.867Z,68.63
2022-08-08T08:54:00.769Z,68.53
2022-08-08T08:54:56.509Z,69.11
2022-08-08T08:56:02.150Z,68.56
2022-08-08T08:56:56.502Z,68.47
2022-08-08T08:57:56.501Z,67.79
2022-08-08T08:58:56.495Z,66.72
2022-08-08T08:59:59.760Z,66.43
2022-08-08T09:01:08.958Z,67.11
2022-08-08T09:01:56.537Z,66.72
2022-08-08T09:02:56.484Z,67.60
2022-08-08T09:03:56.493Z,67.21
2022-08-08T09:04:57.309Z,67.11
2022-08-08T09:05:56.512Z,66.72
2022-08-08T09:06:56.474Z,67.30
2022-08-08T09:08:13.137Z,67.30
2022-08-08T09:08:56.466Z,67.69
2022-08-08T09:09:57.505Z,67.40
2022-08-08T09:10:56.461Z,66.63
2022-08-08T09:12:02.175Z,67.21
2022-08-08T09:12:56.457Z,67.40
2022-08-08T09:13:56.450Z,66.72
2022-08-08T09:14:56.447Z,67.34
2022-08-08T09:16:03.554Z,66.14
2022-08-08T09:16:56.646Z,66.82
2022-08-08T09:17:56.600Z,66.63
2022-08-08T09:18:56.438Z,67.21
2022-08-08T09:22:01.320Z,66.53
2022-08-08T09:22:02.439Z,66.56
2022-08-08T09:22:06.192Z,65.85
2022-08-08T09:22:58.716Z,67.21
2022-08-08T09:23:56.422Z,66.82
2022-08-08T09:24:56.695Z,66.82
2022-08-08T09:26:02.429Z,66.43
2022-08-08T09:26:56.415Z,66.47
2022-08-08T09:27:58.548Z,66.85
2022-08-08T09:28:56.613Z,66.37
2022-08-08T09:29:56.895Z,65.69
2022-08-08T09:30:56.402Z,65.59
2022-08-08T09:31:57.546Z,66.56
2022-08-08T09:33:54.729Z,66.72
2022-08-08T09:34:30.289Z,66.66
2022-08-08T09:34:56.392Z,66.47
2022-08-08T09:35:56.923Z,66.27
2022-08-08T09:37:29.144Z,66.37
2022-08-08T09:38:02.010Z,66.17
2022-08-08T09:38:56.382Z,66.05
2022-08-08T09:39:56.437Z,65.95
2022-08-08T09:40:57.433Z,66.85
2022-08-08T09:42:20.691Z,66.17
2022-08-08T09:42:56.372Z,66.17
2022-08-08T09:44:05.599Z,66.27
2022-08-08T09:44:56.367Z,65.89
2022-08-08T09:46:02.965Z,65.79
2022-08-08T09:46:57.704Z,65.79
2022-08-08T09:48:04.895Z,65.89
2022-08-08T09:48:56.428Z,65.69
2022-08-08T09:49:58.680Z,65.89
2022-08-08T09:50:56.710Z,65.98
2022-08-08T09:52:06.976Z,66.66
2022-08-08T09:53:05.577Z,66.79
2022-08-08T09:54:06.774Z,66.20
2022-08-08T09:54:56.339Z,65.14
2022-08-08T09:56:04.527Z,64.56
2022-08-08T09:56:56.335Z,63.88
2022-08-08T09:57:56.403Z,64.37
2022-08-08T09:58:57.889Z,64.14
2022-08-08T10:00:57.481Z,64.07
2022-08-08T10:01:58.133Z,63.78
2022-08-08T10:02:56.328Z,63.69
2022-08-08T10:03:57.425Z,63.78
2022-08-08T10:04:56.365Z,63.59
2022-08-08T10:05:56.351Z,63.69
2022-08-08T10:06:56.307Z,63.49
2022-08-08T10:08:00.384Z,63.88
2022-08-08T10:08:56.302Z,63.78
2022-08-08T10:09:59.444Z,63.40
2022-08-08T10:10:56.397Z,63.78
2022-08-08T10:12:28.182Z,63.10
2022-08-08T10:12:57.402Z,62.82
2022-08-08T10:13:57.074Z,63.23
2022-08-08T10:14:56.287Z,62.75
2022-08-08T10:16:00.835Z,62.85
2022-08-08T10:16:56.282Z,62.16
2022-08-08T10:18:10.314Z,62.65
2022-08-08T10:18:56.709Z,62.55
2022-08-08T10:19:58.066Z,62.26
2022-08-08T10:21:00.844Z,61.98
2022-08-08T10:21:56.270Z,62.39
2022-08-08T10:22:56.268Z,62.59
2022-08-08T10:23:59.183Z,62.88
2022-08-08T10:24:56.270Z,62.88
2022-08-08T10:25:57.506Z,62.01
2022-08-08T10:26:58.803Z,60.74
2022-08-08T10:27:57.696Z,59.87
2022-08-08T10:28:56.258Z,60.52
2022-08-08T10:29:58.520Z,60.84
2022-08-08T10:30:59.952Z,60.45
2022-08-08T10:31:56.245Z,58.80
2022-08-08T10:32:56.251Z,58.31
2022-08-08T10:34:18.667Z,58.12
2022-08-08T10:34:58.763Z,58.51
2022-08-08T10:36:09.290Z,59.19
2022-08-08T10:36:56.252Z,60.16
2022-08-08T10:37:56.234Z,60.09
2022-08-08T10:38:56.234Z,60.00
2022-08-08T10:39:56.285Z,59.97
2022-08-08T10:40:56.230Z,59.90
2022-08-08T10:41:58.783Z,60.19
2022-08-08T10:42:56.227Z,60.38
2022-08-08T10:43:56.220Z,61.25
2022-08-08T10:44:56.222Z,60.87
2022-08-08T10:45:58.789Z,60.48
2022-08-08T10:46:56.217Z,61.16
2022-08-08T10:47:56.215Z,60.77
2022-08-08T10:48:58.787Z,59.70
2022-08-08T10:50:02.171Z,59.70
2022-08-08T10:50:56.260Z,59.22
2022-08-08T10:51:56.206Z,59.80
2022-08-08T10:52:56.208Z,59.41
2022-08-08T10:53:59.254Z,59.22
2022-08-08T10:54:56.202Z,59.12
2022-08-08T10:55:56.213Z,59.31
2022-08-08T10:56:56.198Z,58.64
2022-08-08T10:57:56.194Z,59.61
2022-08-08T10:58:56.197Z,59.51
2022-08-08T10:59:56.190Z,59.15
2022-08-08T11:01:02.236Z,58.08
2022-08-08T11:01:56.270Z,58.86
2022-08-08T11:02:56.189Z,58.57
2022-08-08T11:04:01.904Z,59.05
2022-08-08T11:04:56.184Z,58.76
2022-08-08T11:06:00.578Z,58.95
2022-08-08T11:06:56.182Z,59.25
2022-08-08T11:08:31.335Z,58.67
2022-08-08T11:08:56.178Z,58.57
2022-08-08T11:09:56.176Z,59.15
2022-08-08T11:10:56.175Z,58.95
2022-08-08T11:12:04.516Z,59.34
2022-08-08T11:13:18.991Z,59.08
2022-08-08T11:14:00.004Z,58.86
2022-08-08T11:14:56.167Z,58.37
2022-08-08T11:16:00.641Z,57.33
2022-08-08T11:16:56.167Z,56.43
2022-08-08T11:18:01.297Z,56.62
2022-08-08T11:18:56.164Z,56.72
2022-08-08T11:19:56.160Z,57.21
2022-08-08T11:20:56.163Z,57.53
2022-08-08T11:21:56.494Z,57.14
2022-08-08T11:22:56.158Z,58.01
2022-08-08T11:24:02.400Z,57.82
2022-08-08T11:24:56.155Z,58.21
2022-08-08T11:25:58.434Z,57.14
2022-08-08T11:26:56.617Z,56.75
2022-08-08T11:27:56.148Z,57.33
2022-08-08T11:28:56.150Z,57.14
2022-08-08T11:30:20.543Z,57.33
2022-08-08T11:30:56.146Z,57.04
2022-08-08T11:31:56.143Z,56.95
2022-08-08T11:32:56.162Z,57.14
2022-08-08T11:34:03.207Z,57.43
2022-08-08T11:35:11.410Z,57.62
2022-08-08T11:35:56.142Z,57.33
2022-08-08T11:36:58.733Z,57.46
2022-08-08T11:38:35.797Z,56.77
2022-08-08T11:38:56.235Z,56.46
2022-08-08T11:39:57.263Z,56.75
2022-08-08T11:40:56.139Z,56.46
2022-08-08T11:41:56.132Z,56.46
2022-08-08T11:42:56.132Z,55.88
2022-08-08T11:43:57.899Z,55.29
2022-08-08T11:44:56.131Z,55.49
2022-08-08T11:46:13.933Z,56.07
2022-08-08T11:46:56.127Z,55.80
2022-08-08T11:48:04.255Z,55.51
2022-08-08T11:48:56.130Z,55.51
2022-08-08T11:49:56.124Z,55.51
2022-08-08T11:50:56.233Z,54.54
2022-08-08T11:51:56.120Z,54.71
2022-08-08T11:52:56.121Z,53.35
2022-08-08T11:54:01.222Z,53.25
2022-08-08T11:54:56.119Z,53.54
2022-08-08T11:55:56.134Z,52.57
2022-08-08T11:56:57.968Z,53.08
2022-08-08T11:57:59.994Z,52.59
2022-08-08T11:58:56.114Z,53.47
2022-08-08T12:00:00.525Z,53.77
2022-08-08T12:00:56.113Z,54.44
2022-08-08T12:02:15.055Z,54.74
2022-08-08T12:02:56.197Z,54.35
2022-08-08T12:03:59.477Z,54.93
2022-08-08T12:04:56.109Z,54.74
2022-08-08T12:05:56.105Z,54.64
2022-08-08T12:06:56.106Z,54.18
2022-08-08T12:07:56.592Z,53.59
2022-08-08T12:08:56.105Z,53.59
2022-08-08T12:09:59.256Z,53.20
2022-08-08T12:10:56.104Z,53.11
2022-08-08T12:11:56.097Z,53.20
2022-08-08T12:12:56.101Z,53.40
2022-08-08T12:14:03.649Z,53.79
2022-08-08T12:14:56.735Z,53.50
2022-08-08T12:15:56.096Z,53.79
2022-08-08T12:16:56.096Z,53.59
2022-08-08T12:17:56.093Z,52.82
2022-08-08T12:18:56.095Z,53.59
2022-08-08T12:19:56.097Z,53.38
2022-08-08T12:20:56.670Z,53.47
2022-08-08T12:21:59.960Z,53.59
2022-08-08T12:22:56.953Z,53.50
2022-08-08T12:24:00.205Z,53.59
2022-08-08T12:24:56.561Z,53.50
2022-08-08T12:25:56.690Z,53.79
2022-08-08T12:26:57.248Z,53.59
2022-08-08T12:27:59.143Z,53.69
2022-08-08T12:28:56.924Z,53.40
2022-08-08T12:29:56.084Z,53.50
2022-08-08T12:30:56.127Z,53.79
2022-08-08T12:31:56.082Z,52.92
2022-08-08T12:32:56.084Z,52.72
2022-08-08T12:34:02.499Z,52.33
2022-08-08T12:35:01.320Z,52.92
2022-08-08T12:35:56.079Z,53.11
2022-08-08T12:36:56.088Z,52.33
2022-08-08T12:38:02.758Z,52.33
2022-08-08T12:38:56.080Z,51.45
2022-08-08T12:40:02.031Z,51.36
2022-08-08T12:40:59.181Z,51.45
2022-08-08T12:41:57.277Z,52.16
2022-08-08T12:42:56.076Z,51.75
2022-08-08T12:44:00.472Z,51.29
2022-08-08T12:44:56.075Z,51.77
2022-08-08T12:46:00.543Z,52.06
2022-08-08T12:47:00.048Z,52.16
2022-08-08T12:48:04.247Z,51.55
2022-08-08T12:49:22.304Z,52.36
2022-08-08T12:49:56.069Z,52.23
2022-08-08T12:50:57.582Z,52.23
2022-08-08T12:52:00.518Z,52.23
2022-08-08T12:52:56.069Z,51.26